Combes, Texas
Current Conditions -  °F | °C
As of 10:52 AM on Saturday 25 Oct 2014 (Local Time) from KHRL Reporting Station
Clear Clear  
Wind Chill: 78°   Ceiling: Unl
Heat Index: 80°   Visibility: 10mi
Dew Point: 66°   Wind: 0mph
Humidity: 66%   Direction: NA
Pressure: 30.17"   Gusts: NA
Location:  26.25°N, 97.73°W
Report Text: KHRL 251552Z 00000KT 10SM CLR 26/19 A3017 RMK AO2 SLP215 T02560189
Loading
Personal Weather Stations






























Interactive Weather Map
Tropical Storm Tracking
New forecast layout! Learn more

10-Day Weather Forecast

Advertisements
Track Severe Weather on mobile